sensor_id;sensor_type;location;lat;lon;timestamp;P1;durP1;ratioP1;P2;durP2;ratioP2
19235;SDS011;9752;54.270;12.470;2023-04-15T00:00:21;359.40;;;112.30;;
19235;SDS011;9752;54.270;12.470;2023-04-15T00:05:23;427.17;;;130.00;;
19235;SDS011;9752;54.270;12.470;2023-04-15T00:10:25;359.63;;;121.47;;
19235;SDS011;9752;54.270;12.470;2023-04-15T00:15:27;306.27;;;106.27;;
19235;SDS011;9752;54.270;12.470;2023-04-15T00:20:29;569.10;;;167.23;;
19235;SDS011;9752;54.270;12.470;2023-04-15T00:25:31;464.03;;;137.70;;
19235;SDS011;9752;54.270;12.470;2023-04-15T00:30:34;272.70;;;100.70;;
19235;SDS011;9752;54.270;12.470;2023-04-15T00:35:36;336.47;;;110.23;;
19235;SDS011;9752;54.270;12.470;2023-04-15T00:40:38;246.97;;;91.27;;
19235;SDS011;9752;54.270;12.470;2023-04-15T00:45:41;258.67;;;93.63;;
19235;SDS011;9752;54.270;12.470;2023-04-15T00:50:43;257.03;;;97.47;;
19235;SDS011;9752;54.270;12.470;2023-04-15T00:55:46;306.10;;;108.20;;
19235;SDS011;9752;54.270;12.470;2023-04-15T01:00:49;266.37;;;100.57;;
19235;SDS011;9752;54.270;12.470;2023-04-15T01:05:53;336.17;;;120.20;;
19235;SDS011;9752;54.270;12.470;2023-04-15T01:10:57;155.53;;;76.97;;
19235;SDS011;9752;54.270;12.470;2023-04-15T01:16:04;185.17;;;84.73;;
19235;SDS011;9752;54.270;12.470;2023-04-15T01:21:07;232.93;;;97.73;;
19235;SDS011;9752;54.270;12.470;2023-04-15T01:26:11;216.23;;;89.30;;
19235;SDS011;9752;54.270;12.470;2023-04-15T01:31:14;196.37;;;85.80;;
19235;SDS011;9752;54.270;12.470;2023-04-15T01:36:15;159.10;;;76.77;;
19235;SDS011;9752;54.270;12.470;2023-04-15T01:41:21;222.57;;;101.47;;
19235;SDS011;9752;54.270;12.470;2023-04-15T01:46:26;199.40;;;88.43;;
19235;SDS011;9752;54.270;12.470;2023-04-15T01:51:28;240.53;;;100.87;;
19235;SDS011;9752;54.270;12.470;2023-04-15T01:56:31;208.20;;;93.27;;
19235;SDS011;9752;54.270;12.470;2023-04-15T02:01:33;146.07;;;75.73;;
19235;SDS011;9752;54.270;12.470;2023-04-15T02:06:34;280.57;;;107.83;;
19235;SDS011;9752;54.270;12.470;2023-04-15T02:11:38;187.33;;;81.50;;
19235;SDS011;9752;54.270;12.470;2023-04-15T02:16:39;203.20;;;92.53;;
19235;SDS011;9752;54.270;12.470;2023-04-15T02:21:41;254.33;;;100.67;;
19235;SDS011;9752;54.270;12.470;2023-04-15T02:26:44;185.40;;;86.43;;
19235;SDS011;9752;54.270;12.470;2023-04-15T02:31:46;234.13;;;96.07;;
19235;SDS011;9752;54.270;12.470;2023-04-15T02:36:47;249.53;;;98.30;;
19235;SDS011;9752;54.270;12.470;2023-04-15T02:41:56;178.93;;;78.70;;
19235;SDS011;9752;54.270;12.470;2023-04-15T02:46:59;259.40;;;95.73;;
19235;SDS011;9752;54.270;12.470;2023-04-15T02:52:01;253.90;;;97.33;;
19235;SDS011;9752;54.270;12.470;2023-04-15T02:57:04;212.90;;;89.37;;
19235;SDS011;9752;54.270;12.470;2023-04-15T03:02:06;199.73;;;85.23;;
19235;SDS011;9752;54.270;12.470;2023-04-15T03:07:08;170.00;;;79.13;;
19235;SDS011;9752;54.270;12.470;2023-04-15T03:12:11;161.87;;;76.63;;
19235;SDS011;9752;54.270;12.470;2023-04-15T03:17:13;215.93;;;87.33;;
19235;SDS011;9752;54.270;12.470;2023-04-15T03:22:17;170.00;;;79.40;;
19235;SDS011;9752;54.270;12.470;2023-04-15T03:27:21;198.77;;;82.80;;
19235;SDS011;9752;54.270;12.470;2023-04-15T03:32:23;148.17;;;72.87;;
19235;SDS011;9752;54.270;12.470;2023-04-15T03:37:25;171.53;;;77.23;;
19235;SDS011;9752;54.270;12.470;2023-04-15T03:42:28;162.53;;;73.27;;
19235;SDS011;9752;54.270;12.470;2023-04-15T03:47:29;184.23;;;82.57;;
19235;SDS011;9752;54.270;12.470;2023-04-15T03:52:31;130.93;;;67.97;;
19235;SDS011;9752;54.270;12.470;2023-04-15T03:57:34;152.63;;;79.07;;
19235;SDS011;9752;54.270;12.470;2023-04-15T04:02:38;162.17;;;80.30;;
19235;SDS011;9752;54.270;12.470;2023-04-15T04:07:39;149.00;;;77.40;;
19235;SDS011;9752;54.270;12.470;2023-04-15T04:12:42;160.80;;;77.93;;
19235;SDS011;9752;54.270;12.470;2023-04-15T04:17:44;139.90;;;74.13;;
19235;SDS011;9752;54.270;12.470;2023-04-15T04:22:46;152.07;;;76.47;;
19235;SDS011;9752;54.270;12.470;2023-04-15T04:27:49;150.60;;;74.40;;
19235;SDS011;9752;54.270;12.470;2023-04-15T04:32:50;145.53;;;75.70;;
19235;SDS011;9752;54.270;12.470;2023-04-15T04:37:52;141.90;;;75.07;;
19235;SDS011;9752;54.270;12.470;2023-04-15T04:42:55;144.83;;;70.63;;
19235;SDS011;9752;54.270;12.470;2023-04-15T04:47:56;144.50;;;72.63;;
19235;SDS011;9752;54.270;12.470;2023-04-15T04:52:58;129.00;;;72.67;;
19235;SDS011;9752;54.270;12.470;2023-04-15T04:58:01;127.47;;;70.87;;
19235;SDS011;9752;54.270;12.470;2023-04-15T05:03:03;131.23;;;70.30;;
19235;SDS011;9752;54.270;12.470;2023-04-15T05:08:04;111.73;;;64.47;;
19235;SDS011;9752;54.270;12.470;2023-04-15T05:13:08;113.40;;;63.23;;
19235;SDS011;9752;54.270;12.470;2023-04-15T05:18:10;106.37;;;60.87;;
19235;SDS011;9752;54.270;12.470;2023-04-15T05:23:11;95.60;;;58.37;;
19235;SDS011;9752;54.270;12.470;2023-04-15T05:28:14;103.80;;;59.53;;
19235;SDS011;9752;54.270;12.470;2023-04-15T05:33:16;92.30;;;57.13;;
19235;SDS011;9752;54.270;12.470;2023-04-15T05:38:18;98.13;;;56.40;;
19235;SDS011;9752;54.270;12.470;2023-04-15T05:43:21;93.93;;;53.23;;
19235;SDS011;9752;54.270;12.470;2023-04-15T05:48:22;81.10;;;52.27;;
19235;SDS011;9752;54.270;12.470;2023-04-15T05:53:24;68.27;;;44.37;;
19235;SDS011;9752;54.270;12.470;2023-04-15T05:58:27;76.00;;;47.43;;
19235;SDS011;9752;54.270;12.470;2023-04-15T06:03:29;74.17;;;47.43;;
19235;SDS011;9752;54.270;12.470;2023-04-15T06:08:30;64.97;;;44.07;;
19235;SDS011;9752;54.270;12.470;2023-04-15T06:13:33;58.80;;;39.17;;
19235;SDS011;9752;54.270;12.470;2023-04-15T06:18:35;57.73;;;41.13;;
19235;SDS011;9752;54.270;12.470;2023-04-15T06:23:37;55.33;;;37.33;;
19235;SDS011;9752;54.270;12.470;2023-04-15T06:28:41;45.07;;;33.87;;
19235;SDS011;9752;54.270;12.470;2023-04-15T06:33:43;46.63;;;34.77;;
19235;SDS011;9752;54.270;12.470;2023-04-15T06:38:44;43.50;;;31.53;;
19235;SDS011;9752;54.270;12.470;2023-04-15T06:43:47;41.07;;;32.40;;
19235;SDS011;9752;54.270;12.470;2023-04-15T06:48:49;36.80;;;29.47;;
19235;SDS011;9752;54.270;12.470;2023-04-15T06:53:51;31.80;;;27.60;;
19235;SDS011;9752;54.270;12.470;2023-04-15T06:58:54;34.37;;;28.57;;
19235;SDS011;9752;54.270;12.470;2023-04-15T07:03:56;33.17;;;28.33;;
19235;SDS011;9752;54.270;12.470;2023-04-15T07:08:58;29.53;;;25.83;;
19235;SDS011;9752;54.270;12.470;2023-04-15T07:14:01;30.13;;;26.87;;
19235;SDS011;9752;54.270;12.470;2023-04-15T07:19:03;29.90;;;26.70;;
19235;SDS011;9752;54.270;12.470;2023-04-15T07:24:05;32.10;;;25.83;;
19235;SDS011;9752;54.270;12.470;2023-04-15T07:29:08;28.53;;;23.67;;
19235;SDS011;9752;54.270;12.470;2023-04-15T07:34:10;28.87;;;25.10;;
19235;SDS011;9752;54.270;12.470;2023-04-15T07:39:12;28.77;;;25.70;;
19235;SDS011;9752;54.270;12.470;2023-04-15T07:44:15;28.73;;;25.73;;
19235;SDS011;9752;54.270;12.470;2023-04-15T07:49:16;29.90;;;25.53;;
19235;SDS011;9752;54.270;12.470;2023-04-15T07:54:18;27.33;;;24.53;;
19235;SDS011;9752;54.270;12.470;2023-04-15T07:59:21;27.70;;;24.77;;
19235;SDS011;9752;54.270;12.470;2023-04-15T08:04:23;26.90;;;23.97;;
19235;SDS011;9752;54.270;12.470;2023-04-15T08:09:24;31.80;;;27.07;;
19235;SDS011;9752;54.270;12.470;2023-04-15T08:14:28;30.27;;;27.53;;
19235;SDS011;9752;54.270;12.470;2023-04-15T08:19:30;31.47;;;27.67;;
19235;SDS011;9752;54.270;12.470;2023-04-15T08:24:31;30.90;;;27.60;;
19235;SDS011;9752;54.270;12.470;2023-04-15T08:29:34;29.70;;;26.67;;
19235;SDS011;9752;54.270;12.470;2023-04-15T08:34:36;28.03;;;25.33;;
19235;SDS011;9752;54.270;12.470;2023-04-15T08:39:38;28.67;;;26.07;;
19235;SDS011;9752;54.270;12.470;2023-04-15T08:44:41;29.47;;;26.50;;
19235;SDS011;9752;54.270;12.470;2023-04-15T08:49:43;36.33;;;32.53;;
19235;SDS011;9752;54.270;12.470;2023-04-15T08:54:46;38.50;;;32.43;;
19235;SDS011;9752;54.270;12.470;2023-04-15T08:59:49;41.93;;;34.23;;
19235;SDS011;9752;54.270;12.470;2023-04-15T09:04:52;37.70;;;33.60;;
19235;SDS011;9752;54.270;12.470;2023-04-15T09:09:54;40.67;;;34.87;;
19235;SDS011;9752;54.270;12.470;2023-04-15T09:14:57;40.33;;;35.93;;
19235;SDS011;9752;54.270;12.470;2023-04-15T09:20:09;43.53;;;36.17;;
19235;SDS011;9752;54.270;12.470;2023-04-15T09:25:24;42.33;;;35.03;;
19235;SDS011;9752;54.270;12.470;2023-04-15T09:30:28;44.33;;;37.23;;
19235;SDS011;9752;54.270;12.470;2023-04-15T09:35:30;45.90;;;35.83;;
19235;SDS011;9752;54.270;12.470;2023-04-15T09:40:33;42.50;;;33.47;;
19235;SDS011;9752;54.270;12.470;2023-04-15T09:45:37;44.90;;;33.27;;
19235;SDS011;9752;54.270;12.470;2023-04-15T09:50:40;42.00;;;34.20;;
19235;SDS011;9752;54.270;12.470;2023-04-15T09:55:43;41.10;;;36.23;;
19235;SDS011;9752;54.270;12.470;2023-04-15T10:00:48;41.87;;;36.10;;
19235;SDS011;9752;54.270;12.470;2023-04-15T10:05:51;40.90;;;34.70;;
19235;SDS011;9752;54.270;12.470;2023-04-15T10:10:54;40.27;;;35.50;;
19235;SDS011;9752;54.270;12.470;2023-04-15T10:15:58;41.07;;;34.10;;
19235;SDS011;9752;54.270;12.470;2023-04-15T10:21:01;35.97;;;32.07;;
19235;SDS011;9752;54.270;12.470;2023-04-15T10:26:04;37.60;;;31.83;;
19235;SDS011;9752;54.270;12.470;2023-04-15T10:31:08;36.50;;;31.80;;
19235;SDS011;9752;54.270;12.470;2023-04-15T10:36:12;46.47;;;39.37;;
19235;SDS011;9752;54.270;12.470;2023-04-15T10:41:16;43.20;;;36.73;;
19235;SDS011;9752;54.270;12.470;2023-04-15T10:46:33;38.07;;;34.03;;
19235;SDS011;9752;54.270;12.470;2023-04-15T10:51:37;41.20;;;36.70;;
19235;SDS011;9752;54.270;12.470;2023-04-15T10:56:41;39.73;;;35.43;;
19235;SDS011;9752;54.270;12.470;2023-04-15T11:01:52;39.60;;;34.03;;
19235;SDS011;9752;54.270;12.470;2023-04-15T11:07:03;40.70;;;36.30;;
19235;SDS011;9752;54.270;12.470;2023-04-15T11:12:07;40.93;;;35.23;;
19235;SDS011;9752;54.270;12.470;2023-04-15T11:17:10;37.40;;;33.43;;
19235;SDS011;9752;54.270;12.470;2023-04-15T11:22:12;37.13;;;33.27;;
19235;SDS011;9752;54.270;12.470;2023-04-15T11:27:19;38.30;;;33.93;;
19235;SDS011;9752;54.270;12.470;2023-04-15T11:32:23;37.13;;;33.23;;
19235;SDS011;9752;54.270;12.470;2023-04-15T11:37:28;35.90;;;32.03;;
19235;SDS011;9752;54.270;12.470;2023-04-15T11:42:30;35.77;;;31.90;;
19235;SDS011;9752;54.270;12.470;2023-04-15T11:47:33;37.07;;;31.87;;
19235;SDS011;9752;54.270;12.470;2023-04-15T11:52:34;35.10;;;31.30;;
19235;SDS011;9752;54.270;12.470;2023-04-15T11:57:36;35.57;;;31.90;;
19235;SDS011;9752;54.270;12.470;2023-04-15T12:02:39;35.00;;;31.40;;
19235;SDS011;9752;54.270;12.470;2023-04-15T12:07:56;39.27;;;32.60;;
19235;SDS011;9752;54.270;12.470;2023-04-15T12:12:58;33.37;;;30.07;;
19235;SDS011;9752;54.270;12.470;2023-04-15T12:18:01;36.07;;;32.43;;
19235;SDS011;9752;54.270;12.470;2023-04-15T12:23:04;35.07;;;31.57;;
19235;SDS011;9752;54.270;12.470;2023-04-15T12:28:09;34.37;;;31.00;;
19235;SDS011;9752;54.270;12.470;2023-04-15T12:33:16;37.73;;;31.70;;
19235;SDS011;9752;54.270;12.470;2023-04-15T12:38:20;37.80;;;33.80;;
19235;SDS011;9752;54.270;12.470;2023-04-15T12:43:22;35.87;;;32.07;;
19235;SDS011;9752;54.270;12.470;2023-04-15T12:48:25;37.33;;;32.70;;
19235;SDS011;9752;54.270;12.470;2023-04-15T12:53:26;35.90;;;32.10;;
19235;SDS011;9752;54.270;12.470;2023-04-15T12:58:28;37.10;;;30.57;;
19235;SDS011;9752;54.270;12.470;2023-04-15T13:03:32;36.97;;;31.57;;
19235;SDS011;9752;54.270;12.470;2023-04-15T13:08:33;36.03;;;30.90;;
19235;SDS011;9752;54.270;12.470;2023-04-15T13:13:35;33.73;;;30.20;;
19235;SDS011;9752;54.270;12.470;2023-04-15T13:18:38;34.43;;;30.93;;
19235;SDS011;9752;54.270;12.470;2023-04-15T13:23:40;34.17;;;30.17;;
19235;SDS011;9752;54.270;12.470;2023-04-15T13:28:42;33.20;;;29.70;;
19235;SDS011;9752;54.270;12.470;2023-04-15T13:33:45;39.57;;;30.70;;
19235;SDS011;9752;54.270;12.470;2023-04-15T13:38:46;36.90;;;32.00;;
19235;SDS011;9752;54.270;12.470;2023-04-15T13:43:48;33.47;;;29.53;;
19235;SDS011;9752;54.270;12.470;2023-04-15T13:48:51;31.00;;;27.93;;
19235;SDS011;9752;54.270;12.470;2023-04-15T13:53:53;33.57;;;29.90;;
19235;SDS011;9752;54.270;12.470;2023-04-15T13:58:55;32.87;;;29.47;;
19235;SDS011;9752;54.270;12.470;2023-04-15T14:04:00;32.67;;;29.17;;
19235;SDS011;9752;54.270;12.470;2023-04-15T14:09:01;31.33;;;28.03;;
19235;SDS011;9752;54.270;12.470;2023-04-15T14:14:03;31.17;;;27.87;;
19235;SDS011;9752;54.270;12.470;2023-04-15T14:19:06;38.00;;;29.07;;
19235;SDS011;9752;54.270;12.470;2023-04-15T14:24:08;33.63;;;28.90;;
19235;SDS011;9752;54.270;12.470;2023-04-15T14:29:10;35.00;;;28.20;;
19235;SDS011;9752;54.270;12.470;2023-04-15T14:34:13;32.07;;;27.57;;
19235;SDS011;9752;54.270;12.470;2023-04-15T14:39:15;36.63;;;27.27;;
19235;SDS011;9752;54.270;12.470;2023-04-15T14:44:17;33.73;;;27.40;;
19235;SDS011;9752;54.270;12.470;2023-04-15T14:49:20;35.80;;;26.53;;
19235;SDS011;9752;54.270;12.470;2023-04-15T14:54:22;30.57;;;24.33;;
19235;SDS011;9752;54.270;12.470;2023-04-15T14:59:24;33.43;;;26.50;;
19235;SDS011;9752;54.270;12.470;2023-04-15T15:04:27;29.23;;;25.27;;
19235;SDS011;9752;54.270;12.470;2023-04-15T15:09:29;31.57;;;24.10;;
19235;SDS011;9752;54.270;12.470;2023-04-15T15:14:31;30.67;;;24.60;;
19235;SDS011;9752;54.270;12.470;2023-04-15T15:19:34;36.53;;;25.33;;
19235;SDS011;9752;54.270;12.470;2023-04-15T15:24:36;35.47;;;24.10;;
19235;SDS011;9752;54.270;12.470;2023-04-15T15:29:37;28.07;;;23.43;;
19235;SDS011;9752;54.270;12.470;2023-04-15T15:34:41;33.27;;;24.27;;
19235;SDS011;9752;54.270;12.470;2023-04-15T15:39:42;29.30;;;22.57;;
19235;SDS011;9752;54.270;12.470;2023-04-15T15:44:44;37.07;;;23.60;;
19235;SDS011;9752;54.270;12.470;2023-04-15T15:49:49;31.27;;;23.83;;
19235;SDS011;9752;54.270;12.470;2023-04-15T15:54:51;29.27;;;22.40;;
19235;SDS011;9752;54.270;12.470;2023-04-15T15:59:53;31.47;;;22.73;;
19235;SDS011;9752;54.270;12.470;2023-04-15T16:04:56;26.93;;;21.77;;
19235;SDS011;9752;54.270;12.470;2023-04-15T16:09:58;30.63;;;22.80;;
19235;SDS011;9752;54.270;12.470;2023-04-15T16:15:00;26.43;;;22.57;;
19235;SDS011;9752;54.270;12.470;2023-04-15T16:20:03;30.23;;;22.27;;
19235;SDS011;9752;54.270;12.470;2023-04-15T16:25:06;29.53;;;22.13;;
19235;SDS011;9752;54.270;12.470;2023-04-15T16:30:09;30.87;;;22.63;;
19235;SDS011;9752;54.270;12.470;2023-04-15T16:35:13;32.53;;;23.70;;
19235;SDS011;9752;54.270;12.470;2023-04-15T16:40:16;34.33;;;24.73;;
19235;SDS011;9752;54.270;12.470;2023-04-15T16:45:18;31.40;;;23.47;;
19235;SDS011;9752;54.270;12.470;2023-04-15T16:50:21;37.87;;;24.53;;
19235;SDS011;9752;54.270;12.470;2023-04-15T16:55:23;37.40;;;23.37;;
19235;SDS011;9752;54.270;12.470;2023-04-15T17:00:26;29.67;;;22.37;;
19235;SDS011;9752;54.270;12.470;2023-04-15T17:05:29;33.73;;;22.70;;
19235;SDS011;9752;54.270;12.470;2023-04-15T17:10:31;31.43;;;23.63;;
19235;SDS011;9752;54.270;12.470;2023-04-15T17:15:33;34.67;;;25.03;;
19235;SDS011;9752;54.270;12.470;2023-04-15T17:20:37;42.83;;;25.83;;
19235;SDS011;9752;54.270;12.470;2023-04-15T17:25:39;37.67;;;24.00;;
19235;SDS011;9752;54.270;12.470;2023-04-15T17:30:40;33.93;;;24.90;;
19235;SDS011;9752;54.270;12.470;2023-04-15T17:35:43;33.90;;;24.90;;
19235;SDS011;9752;54.270;12.470;2023-04-15T17:40:45;32.13;;;23.40;;
19235;SDS011;9752;54.270;12.470;2023-04-15T17:45:47;38.53;;;24.60;;
19235;SDS011;9752;54.270;12.470;2023-04-15T17:50:50;38.23;;;25.23;;
19235;SDS011;9752;54.270;12.470;2023-04-15T17:55:52;35.97;;;23.97;;
19235;SDS011;9752;54.270;12.470;2023-04-15T18:00:54;35.07;;;25.43;;
19235;SDS011;9752;54.270;12.470;2023-04-15T18:05:58;34.67;;;25.33;;
19235;SDS011;9752;54.270;12.470;2023-04-15T18:11:00;40.57;;;25.90;;
19235;SDS011;9752;54.270;12.470;2023-04-15T18:16:02;39.20;;;26.40;;
19235;SDS011;9752;54.270;12.470;2023-04-15T18:21:05;39.90;;;25.33;;
19235;SDS011;9752;54.270;12.470;2023-04-15T18:26:07;34.33;;;26.20;;
19235;SDS011;9752;54.270;12.470;2023-04-15T18:31:09;37.00;;;25.27;;
19235;SDS011;9752;54.270;12.470;2023-04-15T18:36:12;32.00;;;24.50;;
19235;SDS011;9752;54.270;12.470;2023-04-15T18:41:14;38.37;;;24.70;;
19235;SDS011;9752;54.270;12.470;2023-04-15T18:46:15;36.90;;;25.60;;
19235;SDS011;9752;54.270;12.470;2023-04-15T18:51:19;39.10;;;26.40;;
19235;SDS011;9752;54.270;12.470;2023-04-15T18:56:21;41.37;;;26.23;;
19235;SDS011;9752;54.270;12.470;2023-04-15T19:01:22;34.07;;;24.57;;
19235;SDS011;9752;54.270;12.470;2023-04-15T19:06:25;37.17;;;26.23;;
19235;SDS011;9752;54.270;12.470;2023-04-15T19:11:27;42.50;;;26.20;;
19235;SDS011;9752;54.270;12.470;2023-04-15T19:16:29;51.90;;;28.87;;
19235;SDS011;9752;54.270;12.470;2023-04-15T19:21:33;40.13;;;27.57;;
19235;SDS011;9752;54.270;12.470;2023-04-15T19:26:35;41.23;;;25.67;;
19235;SDS011;9752;54.270;12.470;2023-04-15T19:31:37;48.80;;;28.33;;
19235;SDS011;9752;54.270;12.470;2023-04-15T19:36:40;47.63;;;28.50;;
19235;SDS011;9752;54.270;12.470;2023-04-15T19:41:42;42.93;;;26.97;;
19235;SDS011;9752;54.270;12.470;2023-04-15T19:46:43;41.97;;;26.70;;
19235;SDS011;9752;54.270;12.470;2023-04-15T19:51:50;44.17;;;27.97;;
19235;SDS011;9752;54.270;12.470;2023-04-15T19:56:52;44.07;;;29.53;;
19235;SDS011;9752;54.270;12.470;2023-04-15T20:01:53;43.67;;;28.27;;
19235;SDS011;9752;54.270;12.470;2023-04-15T20:06:58;49.33;;;30.80;;
19235;SDS011;9752;54.270;12.470;2023-04-15T20:11:59;44.53;;;29.83;;
19235;SDS011;9752;54.270;12.470;2023-04-15T20:17:01;48.23;;;28.60;;
19235;SDS011;9752;54.270;12.470;2023-04-15T20:22:04;47.53;;;29.97;;
19235;SDS011;9752;54.270;12.470;2023-04-15T20:27:06;52.00;;;31.03;;
19235;SDS011;9752;54.270;12.470;2023-04-15T20:32:08;55.90;;;33.53;;
19235;SDS011;9752;54.270;12.470;2023-04-15T20:37:12;54.70;;;31.50;;
19235;SDS011;9752;54.270;12.470;2023-04-15T20:42:13;51.70;;;32.17;;
19235;SDS011;9752;54.270;12.470;2023-04-15T20:47:15;54.90;;;34.00;;
19235;SDS011;9752;54.270;12.470;2023-04-15T20:52:18;56.03;;;34.23;;
19235;SDS011;9752;54.270;12.470;2023-04-15T20:57:20;53.97;;;34.03;;
19235;SDS011;9752;54.270;12.470;2023-04-15T21:02:23;54.47;;;34.67;;
19235;SDS011;9752;54.270;12.470;2023-04-15T21:07:27;59.33;;;35.53;;
19235;SDS011;9752;54.270;12.470;2023-04-15T21:12:28;57.93;;;33.20;;
19235;SDS011;9752;54.270;12.470;2023-04-15T21:17:30;67.43;;;38.20;;
19235;SDS011;9752;54.270;12.470;2023-04-15T21:22:34;59.47;;;34.53;;
19235;SDS011;9752;54.270;12.470;2023-04-15T21:27:36;57.63;;;36.17;;
19235;SDS011;9752;54.270;12.470;2023-04-15T21:32:37;63.87;;;32.60;;
19235;SDS011;9752;54.270;12.470;2023-04-15T21:37:41;53.53;;;32.40;;
19235;SDS011;9752;54.270;12.470;2023-04-15T21:42:42;59.40;;;31.80;;
19235;SDS011;9752;54.270;12.470;2023-04-15T21:47:44;62.53;;;33.83;;
19235;SDS011;9752;54.270;12.470;2023-04-15T21:52:47;56.27;;;31.50;;
19235;SDS011;9752;54.270;12.470;2023-04-15T21:57:49;52.83;;;28.53;;
19235;SDS011;9752;54.270;12.470;2023-04-15T22:02:50;52.90;;;31.30;;
19235;SDS011;9752;54.270;12.470;2023-04-15T22:07:53;52.33;;;29.57;;
19235;SDS011;9752;54.270;12.470;2023-04-15T22:12:57;53.77;;;30.20;;
19235;SDS011;9752;54.270;12.470;2023-04-15T22:18:02;62.93;;;30.53;;
19235;SDS011;9752;54.270;12.470;2023-04-15T22:23:05;53.10;;;30.27;;
19235;SDS011;9752;54.270;12.470;2023-04-15T22:28:08;54.40;;;27.60;;
19235;SDS011;9752;54.270;12.470;2023-04-15T22:33:10;51.93;;;28.43;;
19235;SDS011;9752;54.270;12.470;2023-04-15T22:38:13;50.67;;;28.63;;
19235;SDS011;9752;54.270;12.470;2023-04-15T22:43:15;54.80;;;32.47;;
19235;SDS011;9752;54.270;12.470;2023-04-15T22:48:16;48.67;;;29.83;;
19235;SDS011;9752;54.270;12.470;2023-04-15T22:53:20;52.33;;;29.80;;
19235;SDS011;9752;54.270;12.470;2023-04-15T22:58:21;48.60;;;28.20;;
19235;SDS011;9752;54.270;12.470;2023-04-15T23:03:23;44.53;;;28.47;;
19235;SDS011;9752;54.270;12.470;2023-04-15T23:08:26;49.93;;;27.47;;
19235;SDS011;9752;54.270;12.470;2023-04-15T23:13:28;51.87;;;28.10;;
19235;SDS011;9752;54.270;12.470;2023-04-15T23:18:30;52.50;;;30.60;;
19235;SDS011;9752;54.270;12.470;2023-04-15T23:23:33;55.67;;;30.70;;
19235;SDS011;9752;54.270;12.470;2023-04-15T23:28:34;55.73;;;30.57;;
19235;SDS011;9752;54.270;12.470;2023-04-15T23:33:36;50.43;;;29.33;;
19235;SDS011;9752;54.270;12.470;2023-04-15T23:38:39;52.63;;;31.93;;
19235;SDS011;9752;54.270;12.470;2023-04-15T23:43:42;54.33;;;30.67;;
19235;SDS011;9752;54.270;12.470;2023-04-15T23:48:43;47.53;;;29.07;;
19235;SDS011;9752;54.270;12.470;2023-04-15T23:53:48;51.93;;;29.50;;
19235;SDS011;9752;54.270;12.470;2023-04-15T23:58:51;47.53;;;30.00;;
